Time;durP1;ratioP1;P1;durP2;ratioP2;P2;SDS_P1;SDS_P2;PMS_P1;PMS_P2;Temp;Humidity;BMP_temperature;BMP_pressure;BME280_temperature;BME280_humidity;BME280_pressure;Samples;Min_cycle;Max_cycle;Signal;HPM_P1;HPM_P2
2024/04/03 00:00:55;;;;;;;5.53;2.20;;;11.90;99.90;;;;;;2092115;28;20489;-71
2024/04/03 00:01:56;;;;;;;3.60;1.85;;;11.90;99.90;;;;;;2095811;28;20074;-70
2024/04/03 00:02:56;;;;;;;8.60;2.50;;;11.90;99.90;;;;;;2095643;28;20071;-71
2024/04/03 00:03:57;;;;;;;4.03;2.25;;;11.90;99.90;;;;;;2093295;28;20037;-71
2024/04/03 00:04:58;;;;;;;5.85;2.10;;;11.90;99.90;;;;;;2094248;28;20032;-70
2024/04/03 00:05:58;;;;;;;6.07;2.50;;;12.00;99.90;;;;;;2092853;28;20020;-70
2024/04/03 00:06:59;;;;;;;5.85;2.10;;;11.90;99.90;;;;;;2093786;28;20024;-70
2024/04/03 00:07:59;;;;;;;6.40;2.55;;;11.90;99.90;;;;;;2096264;28;20060;-68
2024/04/03 00:09:02;;;;;;;5.10;2.03;;;12.00;99.90;;;;;;2093530;28;20074;-70
2024/04/03 00:10:03;;;;;;;7.18;2.67;;;12.00;99.90;;;;;;2093431;28;20028;-69
2024/04/03 00:11:04;;;;;;;4.90;2.38;;;12.00;99.90;;;;;;2096175;28;20070;-69
2024/04/03 00:12:05;;;;;;;6.68;2.30;;;12.00;99.90;;;;;;2094197;28;20063;-69
2024/04/03 00:13:06;;;;;;;6.70;2.45;;;12.00;99.90;;;;;;2096731;28;20060;-69
2024/04/03 00:14:06;;;;;;;7.05;2.67;;;12.00;99.90;;;;;;2095182;28;20044;-70
2024/04/03 00:15:07;;;;;;;4.88;2.40;;;12.00;99.90;;;;;;2095660;28;20505;-69
2024/04/03 00:16:07;;;;;;;5.32;2.10;;;12.00;99.90;;;;;;2093161;28;20153;-69
2024/04/03 00:17:08;;;;;;;7.30;3.67;;;12.00;99.90;;;;;;2084374;28;20071;-69
2024/04/03 00:18:09;;;;;;;6.38;2.25;;;12.00;99.90;;;;;;2085085;28;20517;-69
2024/04/03 00:19:09;;;;;;;5.07;2.45;;;12.00;99.90;;;;;;2094744;28;20090;-70
2024/04/03 00:20:10;;;;;;;5.03;2.53;;;12.00;99.90;;;;;;2095080;28;20028;-69
2024/04/03 00:21:11;;;;;;;5.45;2.55;;;12.00;99.90;;;;;;2094032;28;20053;-70
2024/04/03 00:22:11;;;;;;;6.55;2.63;;;12.00;99.90;;;;;;2095125;28;20048;-69
2024/04/03 00:23:12;;;;;;;3.40;2.05;;;12.00;99.90;;;;;;2094220;28;20024;-68
2024/04/03 00:24:12;;;;;;;4.75;1.92;;;12.00;99.90;;;;;;2094831;28;20060;-71
2024/04/03 00:25:13;;;;;;;6.32;2.58;;;12.00;99.90;;;;;;2095445;28;20025;-68
2024/04/03 00:26:14;;;;;;;5.07;2.13;;;12.00;99.90;;;;;;2093462;28;20089;-71
2024/04/03 00:27:15;;;;;;;7.18;2.33;;;12.00;99.90;;;;;;2095372;28;20159;-69
2024/04/03 00:28:16;;;;;;;6.07;2.58;;;12.00;99.90;;;;;;2091638;28;20032;-69
2024/04/03 00:29:17;;;;;;;4.68;2.25;;;12.00;99.90;;;;;;2094210;28;20043;-71
2024/04/03 00:30:17;;;;;;;5.88;2.25;;;12.00;99.90;;;;;;2091739;28;20028;-70
2024/04/03 00:31:18;;;;;;;5.40;2.10;;;12.00;99.90;;;;;;2093736;28;20513;-69
2024/04/03 00:32:19;;;;;;;5.80;2.20;;;12.00;99.90;;;;;;2093858;28;20025;-70
2024/04/03 00:33:20;;;;;;;8.55;2.55;;;12.00;99.90;;;;;;2093697;28;20028;-70
2024/04/03 00:34:21;;;;;;;5.90;2.05;;;12.00;99.90;;;;;;2093735;28;20350;-70
2024/04/03 00:35:21;;;;;;;3.40;1.88;;;12.00;99.90;;;;;;2093349;28;20059;-69
2024/04/03 00:36:22;;;;;;;7.35;2.25;;;12.10;99.90;;;;;;2094152;28;20039;-70
2024/04/03 00:37:22;;;;;;;5.78;2.67;;;12.10;99.90;;;;;;2093293;28;20029;-70
2024/04/03 00:38:24;;;;;;;4.85;2.47;;;12.00;99.90;;;;;;2093895;28;20029;-70
2024/04/03 00:39:24;;;;;;;5.35;2.50;;;12.10;99.90;;;;;;2095059;28;20041;-70
2024/04/03 00:40:25;;;;;;;8.27;2.88;;;12.10;99.90;;;;;;2092543;28;20043;-70
2024/04/03 00:41:29;;;;;;;5.65;2.33;;;12.00;99.90;;;;;;2092447;28;20091;-70
2024/04/03 00:42:30;;;;;;;5.97;2.17;;;12.00;99.90;;;;;;2095005;28;20055;-70
2024/04/03 00:43:31;;;;;;;4.10;1.98;;;12.00;99.90;;;;;;2094824;28;20020;-70
2024/04/03 00:44:42;;;;;;;5.50;2.40;;;12.00;99.90;;;;;;2095835;28;20370;-72
2024/04/03 00:45:46;;;;;;;6.93;2.55;;;12.00;99.90;;;;;;2095743;28;20024;-70
2024/04/03 00:46:47;;;;;;;4.20;2.25;;;12.00;99.90;;;;;;2083937;28;20021;-70
2024/04/03 00:47:48;;;;;;;4.15;2.13;;;12.00;99.90;;;;;;2087458;28;20021;-70
2024/04/03 00:48:49;;;;;;;7.75;2.58;;;12.00;99.90;;;;;;2093349;28;20025;-70
2024/04/03 00:49:49;;;;;;;4.93;2.58;;;12.00;99.90;;;;;;2092544;28;20469;-70
2024/04/03 00:50:51;;;;;;;5.22;2.28;;;12.00;99.90;;;;;;2094327;28;20360;-71
2024/04/03 00:51:52;;;;;;;3.58;2.13;;;12.00;99.90;;;;;;2095163;28;20039;-69
2024/04/03 00:52:53;;;;;;;6.13;3.28;;;12.00;99.90;;;;;;2094103;28;20020;-68
2024/04/03 00:53:56;;;;;;;7.15;2.40;;;12.00;99.90;;;;;;2094597;28;20715;-70
2024/04/03 00:54:57;;;;;;;3.80;2.10;;;12.10;99.90;;;;;;2091828;28;20028;-71
2024/04/03 00:55:58;;;;;;;6.13;2.45;;;12.10;99.90;;;;;;2095363;28;20033;-71
2024/04/03 00:56:59;;;;;;;6.25;2.58;;;12.00;99.90;;;;;;2094993;28;20029;-70
2024/04/03 00:58:02;;;;;;;5.85;2.60;;;12.10;99.90;;;;;;2093314;28;20024;-71
2024/04/03 00:59:03;;;;;;;3.38;2.17;;;12.00;99.90;;;;;;2094769;28;20086;-70
2024/04/03 01:00:04;;;;;;;4.88;2.45;;;12.00;99.90;;;;;;2092057;28;20099;-71
2024/04/03 01:01:08;;;;;;;7.90;2.55;;;12.00;99.90;;;;;;2093693;28;20025;-70
2024/04/03 01:02:09;;;;;;;8.50;2.80;;;12.00;99.90;;;;;;2095053;28;20082;-70
2024/04/03 01:03:10;;;;;;;6.07;2.67;;;12.00;99.90;;;;;;2085248;28;20075;-71
2024/04/03 01:04:11;;;;;;;7.22;3.10;;;12.10;99.90;;;;;;2087599;28;20095;-70
2024/04/03 01:05:11;;;;;;;4.85;2.83;;;12.00;99.90;;;;;;2092221;28;20035;-70
2024/04/03 01:06:12;;;;;;;5.22;2.78;;;12.00;99.90;;;;;;2096112;28;20032;-71
2024/04/03 01:07:13;;;;;;;4.35;2.65;;;12.00;99.90;;;;;;2094462;28;20430;-71
2024/04/03 01:08:13;;;;;;;7.22;2.85;;;12.00;99.90;;;;;;2094724;28;20029;-69
2024/04/03 01:09:14;;;;;;;5.10;2.60;;;12.10;99.90;;;;;;2092680;28;20428;-69
2024/04/03 01:10:15;;;;;;;7.07;2.92;;;12.10;99.90;;;;;;2095111;28;20035;-69
2024/04/03 01:11:16;;;;;;;4.03;2.45;;;12.10;99.90;;;;;;2096443;28;20382;-69
2024/04/03 01:12:16;;;;;;;7.80;3.17;;;12.10;99.90;;;;;;2095550;28;20033;-69
2024/04/03 01:13:30;;;;;;;8.10;3.13;;;12.10;99.90;;;;;;2094294;28;20450;-71
2024/04/03 01:14:32;;;;;;;5.55;2.55;;;12.10;99.90;;;;;;2093940;28;20074;-69
2024/04/03 01:15:33;;;;;;;5.55;2.72;;;12.10;99.90;;;;;;2094496;28;20024;-69
2024/04/03 01:16:35;;;;;;;7.30;2.53;;;12.10;99.90;;;;;;2094169;28;20028;-69
2024/04/03 01:17:39;;;;;;;2.67;2.15;;;12.10;99.90;;;;;;2087499;28;20037;-70
2024/04/03 01:18:39;;;;;;;7.82;2.58;;;12.10;99.90;;;;;;2094336;28;20056;-70
2024/04/03 01:19:40;;;;;;;6.57;2.72;;;12.10;99.90;;;;;;2094438;28;20027;-69
2024/04/03 01:20:40;;;;;;;5.50;2.53;;;12.10;99.90;;;;;;2095454;28;20111;-70
2024/04/03 01:21:41;;;;;;;5.68;2.47;;;12.10;99.90;;;;;;2093726;28;20063;-71
2024/04/03 01:22:42;;;;;;;6.05;2.40;;;12.10;99.90;;;;;;2094413;28;20059;-70
2024/04/03 01:23:43;;;;;;;5.82;2.42;;;12.10;99.90;;;;;;2092914;28;20389;-69
2024/04/03 01:24:43;;;;;;;4.85;2.17;;;12.10;99.90;;;;;;2094758;28;20362;-69
2024/04/03 01:25:44;;;;;;;6.53;2.08;;;12.10;99.90;;;;;;2092719;28;20037;-70
2024/04/03 01:26:44;;;;;;;9.85;2.83;;;12.10;99.90;;;;;;2094029;28;20029;-69
2024/04/03 01:27:45;;;;;;;5.07;2.20;;;12.10;99.90;;;;;;2092321;28;20580;-70
2024/04/03 01:28:46;;;;;;;5.43;2.20;;;12.10;99.90;;;;;;2094639;28;20115;-69
2024/04/03 01:29:46;;;;;;;7.53;2.88;;;12.10;99.90;;;;;;2093690;28;20028;-70
2024/04/03 01:30:47;;;;;;;7.47;2.83;;;12.10;99.90;;;;;;2093616;28;20025;-71
2024/04/03 01:31:48;;;;;;;5.00;2.30;;;12.10;99.90;;;;;;2085544;28;20052;-69
2024/04/03 01:32:48;;;;;;;7.32;2.65;;;12.20;99.90;;;;;;2086567;28;20048;-70
2024/04/03 01:33:51;;;;;;;5.97;2.50;;;12.10;99.90;;;;;;2092465;28;20107;-70
2024/04/03 01:34:52;;;;;;;6.50;2.25;;;12.10;99.90;;;;;;2095971;28;20601;-71
2024/04/03 01:35:53;;;;;;;4.32;2.00;;;12.20;99.90;;;;;;2093558;28;20384;-71
2024/04/03 01:36:53;;;;;;;4.30;2.28;;;12.20;99.90;;;;;;2096018;28;20021;-71
2024/04/03 01:37:54;;;;;;;8.63;2.20;;;12.10;99.90;;;;;;2092752;28;20116;-69
2024/04/03 01:38:55;;;;;;;5.40;2.05;;;12.10;99.90;;;;;;2095155;28;20036;-70
2024/04/03 01:39:55;;;;;;;5.13;2.38;;;12.20;99.90;;;;;;2091489;28;20032;-71
2024/04/03 01:40:56;;;;;;;2.85;1.80;;;12.20;99.90;;;;;;2092212;28;20052;-68
2024/04/03 01:41:57;;;;;;;3.65;1.85;;;12.10;99.90;;;;;;2092611;28;20511;-69
2024/04/03 01:42:58;;;;;;;7.43;2.33;;;12.20;99.90;;;;;;2092636;28;20028;-70
2024/04/03 01:43:58;;;;;;;4.65;1.85;;;12.20;99.90;;;;;;2094762;28;20032;-69
2024/04/03 01:44:59;;;;;;;4.28;1.88;;;12.20;99.90;;;;;;2092825;28;20104;-70
2024/04/03 01:46:00;;;;;;;5.15;2.05;;;12.20;99.90;;;;;;2094133;28;20381;-71
2024/04/03 01:47:02;;;;;;;5.10;2.00;;;12.20;99.90;;;;;;2095136;28;20071;-70
2024/04/03 01:48:03;;;;;;;6.22;2.60;;;12.20;99.90;;;;;;2095166;28;20021;-71
2024/04/03 01:49:04;;;;;;;3.05;1.83;;;12.20;99.90;;;;;;2094421;28;20029;-70
2024/04/03 01:50:04;;;;;;;5.45;2.10;;;12.20;99.90;;;;;;2093098;28;20823;-70
2024/04/03 01:51:06;;;;;;;4.25;2.28;;;12.20;99.90;;;;;;2091926;28;20035;-69
2024/04/03 01:52:07;;;;;;;3.53;1.92;;;12.20;99.90;;;;;;2093354;28;20110;-70
2024/04/03 01:53:08;;;;;;;4.10;1.80;;;12.20;99.90;;;;;;2095077;28;20062;-69
2024/04/03 01:54:08;;;;;;;4.65;1.90;;;12.20;99.90;;;;;;2094808;28;20102;-70
2024/04/03 01:55:09;;;;;;;3.50;1.83;;;12.20;99.90;;;;;;2095480;28;20032;-70
2024/04/03 01:56:09;;;;;;;4.57;2.03;;;12.20;99.90;;;;;;2093648;28;20064;-70
2024/04/03 01:57:10;;;;;;;4.90;1.85;;;12.20;99.90;;;;;;2096062;28;20095;-70
2024/04/03 01:58:10;;;;;;;4.30;1.83;;;12.20;99.90;;;;;;2093810;28;20025;-70
2024/04/03 01:59:11;;;;;;;4.35;1.70;;;12.20;99.90;;;;;;2096085;28;20115;-70
2024/04/03 02:00:14;;;;;;;5.18;2.00;;;12.20;99.90;;;;;;2092418;28;20032;-70
2024/04/03 02:01:17;;;;;;;4.20;1.70;;;12.20;99.90;;;;;;2093462;28;20029;-70
2024/04/03 02:02:17;;;;;;;5.15;1.52;;;12.20;99.90;;;;;;2093842;28;20393;-70
2024/04/03 02:03:19;;;;;;;5.93;1.77;;;12.20;99.90;;;;;;2095294;28;20060;-70
2024/04/03 02:04:19;;;;;;;4.72;1.70;;;12.20;99.90;;;;;;2090557;28;20024;-70
2024/04/03 02:05:20;;;;;;;3.42;1.65;;;12.20;99.90;;;;;;2094038;28;20020;-70
2024/04/03 02:06:21;;;;;;;3.05;1.45;;;12.20;99.90;;;;;;2092958;28;20066;-70
2024/04/03 02:07:21;;;;;;;4.05;1.63;;;12.20;99.90;;;;;;2092414;28;20496;-70
2024/04/03 02:08:22;;;;;;;2.92;1.55;;;12.20;99.90;;;;;;2094515;28;20436;-70
2024/04/03 02:09:22;;;;;;;6.32;2.17;;;12.20;99.90;;;;;;2092195;28;20024;-70
2024/04/03 02:10:23;;;;;;;4.22;2.33;;;12.20;99.90;;;;;;2092941;28;20108;-69
2024/04/03 02:11:23;;;;;;;5.38;1.75;;;12.20;99.90;;;;;;2094156;28;20326;-69
2024/04/03 02:12:24;;;;;;;5.20;1.92;;;12.20;99.90;;;;;;2084417;28;20103;-69
2024/04/03 02:13:24;;;;;;;5.88;2.05;;;12.10;99.90;;;;;;2085508;28;20090;-70
2024/04/03 02:14:25;;;;;;;5.60;1.63;;;12.20;99.90;;;;;;2095013;28;20028;-70
2024/04/03 02:15:25;;;;;;;4.63;2.20;;;12.10;99.90;;;;;;2093427;28;20031;-69
2024/04/03 02:16:29;;;;;;;6.50;2.35;;;12.20;99.90;;;;;;2094463;28;20024;-69
2024/04/03 02:17:30;;;;;;;5.53;1.88;;;12.20;99.90;;;;;;2092679;28;20020;-69
2024/04/03 02:18:30;;;;;;;4.95;1.90;;;12.10;99.90;;;;;;2092222;28;20060;-69
2024/04/03 02:19:31;;;;;;;3.55;2.00;;;12.20;99.90;;;;;;2094085;28;20115;-69
2024/04/03 02:20:34;;;;;;;5.05;2.00;;;12.10;99.90;;;;;;2092207;28;20028;-69
2024/04/03 02:21:35;;;;;;;4.20;1.73;;;12.20;99.90;;;;;;2091599;28;20048;-69
2024/04/03 02:22:36;;;;;;;5.50;2.38;;;12.20;99.90;;;;;;2093984;28;20040;-70
2024/04/03 02:23:37;;;;;;;6.50;1.67;;;12.20;99.90;;;;;;2093818;28;20020;-69
2024/04/03 02:24:37;;;;;;;2.72;1.80;;;12.20;99.90;;;;;;2092056;28;20036;-69
2024/04/03 02:25:38;;;;;;;4.65;2.15;;;12.20;99.90;;;;;;2092705;28;20083;-70
2024/04/03 02:26:39;;;;;;;6.07;1.63;;;12.20;99.90;;;;;;2092513;28;20085;-70
2024/04/03 02:27:40;;;;;;;3.65;1.35;;;12.20;99.90;;;;;;2093784;28;20025;-70
2024/04/03 02:28:40;;;;;;;5.63;1.90;;;12.20;99.90;;;;;;2091628;28;20024;-70
2024/04/03 02:29:42;;;;;;;5.07;1.80;;;12.20;99.90;;;;;;2093242;28;20029;-70
2024/04/03 02:30:43;;;;;;;4.90;1.75;;;12.20;99.90;;;;;;2093476;28;20029;-70
2024/04/03 02:31:43;;;;;;;4.30;1.63;;;12.20;99.90;;;;;;2093098;28;20029;-69
2024/04/03 02:32:47;;;;;;;4.05;1.63;;;12.20;99.90;;;;;;2091970;28;20042;-70
2024/04/03 02:33:49;;;;;;;5.13;1.50;;;12.20;99.90;;;;;;2093887;28;20025;-70
2024/04/03 02:34:54;;;;;;;2.47;1.50;;;12.20;99.90;;;;;;2093757;28;20071;-69
2024/04/03 02:35:54;;;;;;;6.10;2.03;;;12.20;99.90;;;;;;2093707;28;20028;-69
2024/04/03 02:36:55;;;;;;;4.60;1.83;;;12.20;99.90;;;;;;2084734;28;20064;-70
2024/04/03 02:37:56;;;;;;;6.63;1.90;;;12.20;99.90;;;;;;2084799;28;20035;-69
2024/04/03 02:38:56;;;;;;;4.03;1.80;;;12.20;99.90;;;;;;2094740;28;20064;-69
2024/04/03 02:39:57;;;;;;;2.38;1.70;;;12.20;99.90;;;;;;2093634;28;20089;-70
2024/04/03 02:40:57;;;;;;;4.80;1.90;;;12.20;99.90;;;;;;2091818;28;20036;-69
2024/04/03 02:41:59;;;;;;;6.25;1.85;;;12.20;99.90;;;;;;2092901;28;20071;-70
2024/04/03 02:42:59;;;;;;;5.28;1.80;;;12.20;99.90;;;;;;2090466;28;20037;-69
2024/04/03 02:44:00;;;;;;;4.05;1.67;;;12.20;99.90;;;;;;2093959;28;20025;-70
2024/04/03 02:45:01;;;;;;;4.25;1.77;;;12.20;99.90;;;;;;2091026;28;20100;-70
2024/04/03 02:46:01;;;;;;;3.85;1.77;;;12.20;99.90;;;;;;2091752;28;20025;-70
2024/04/03 02:47:02;;;;;;;4.20;1.50;;;12.20;99.90;;;;;;2092944;28;20081;-70
2024/04/03 02:48:02;;;;;;;3.83;1.58;;;12.20;99.90;;;;;;2092814;28;20036;-70
2024/04/03 02:49:03;;;;;;;3.42;1.70;;;12.20;99.90;;;;;;2093626;28;20143;-70
2024/04/03 02:50:04;;;;;;;4.88;1.45;;;12.20;99.90;;;;;;2093242;28;20029;-70
2024/04/03 02:51:09;;;;;;;5.38;1.88;;;12.20;99.90;;;;;;2091275;28;20025;-70
2024/04/03 02:52:10;;;;;;;4.88;1.73;;;12.20;99.90;;;;;;2092257;28;20040;-70
2024/04/03 02:53:10;;;;;;;6.25;1.70;;;12.20;99.90;;;;;;2090872;28;20035;-70
2024/04/03 02:54:11;;;;;;;4.93;1.60;;;12.20;99.90;;;;;;2092888;28;20017;-70
2024/04/03 02:55:11;;;;;;;4.85;1.38;;;12.20;99.90;;;;;;2092756;28;20032;-68
2024/04/03 02:56:12;;;;;;;4.47;1.70;;;12.20;99.90;;;;;;2092619;28;20090;-70
2024/04/03 02:57:12;;;;;;;4.43;2.00;;;12.20;99.90;;;;;;2093492;28;20028;-70
2024/04/03 02:58:13;;;;;;;3.10;1.50;;;12.20;99.90;;;;;;2094542;28;20037;-70
2024/04/03 02:59:13;;;;;;;5.90;1.75;;;12.20;99.90;;;;;;2092021;28;20096;-70
2024/04/03 03:00:14;;;;;;;5.80;2.03;;;12.20;99.90;;;;;;2093739;28;20037;-68
2024/04/03 03:01:14;;;;;;;4.63;1.42;;;12.20;99.90;;;;;;2091113;28;20024;-70
2024/04/03 03:02:15;;;;;;;3.88;1.40;;;12.20;99.90;;;;;;2093849;28;20024;-70
2024/04/03 03:03:19;;;;;;;4.97;1.55;;;12.20;99.90;;;;;;2093568;28;20024;-70
2024/04/03 03:04:21;;;;;;;3.95;1.60;;;12.20;99.90;;;;;;2093750;28;20016;-70
2024/04/03 03:05:22;;;;;;;4.90;1.50;;;12.20;99.90;;;;;;2092260;28;20053;-70
2024/04/03 03:06:22;;;;;;;5.72;1.85;;;12.20;99.90;;;;;;2093383;28;20028;-70
2024/04/03 03:07:23;;;;;;;6.10;1.70;;;12.20;99.90;;;;;;2091852;28;20424;-69
2024/04/03 03:08:28;;;;;;;4.20;1.40;;;12.20;99.90;;;;;;2092847;28;20032;-70
2024/04/03 03:09:28;;;;;;;3.00;1.33;;;12.20;99.90;;;;;;2092465;28;20083;-68
2024/04/03 03:10:29;;;;;;;8.48;1.73;;;12.20;99.90;;;;;;2093185;28;20032;-68
2024/04/03 03:11:29;;;;;;;5.88;1.63;;;12.20;99.90;;;;;;2094203;28;20036;-70
2024/04/03 03:12:30;;;;;;;4.32;1.60;;;12.20;99.90;;;;;;2092698;28;20039;-70
2024/04/03 03:13:31;;;;;;;5.05;1.85;;;12.20;99.90;;;;;;2093007;28;20439;-70
2024/04/03 03:14:32;;;;;;;3.50;1.40;;;12.20;99.90;;;;;;2093894;28;20428;-70
2024/04/03 03:15:32;;;;;;;4.15;1.95;;;12.20;99.90;;;;;;2092032;28;20028;-70
2024/04/03 03:16:33;;;;;;;2.80;1.42;;;12.20;99.90;;;;;;2091521;28;20923;-70
2024/04/03 03:17:33;;;;;;;5.88;1.83;;;12.20;99.90;;;;;;2090965;28;20052;-70
2024/04/03 03:18:34;;;;;;;3.75;1.23;;;12.20;99.90;;;;;;2094503;28;20035;-70
2024/04/03 03:19:34;;;;;;;7.30;1.80;;;12.20;99.90;;;;;;2092567;28;20036;-70
2024/04/03 03:20:35;;;;;;;2.80;1.20;;;12.20;99.90;;;;;;2091369;28;20081;-70
2024/04/03 03:21:35;;;;;;;3.75;1.42;;;12.20;99.90;;;;;;2090744;28;20041;-70
2024/04/03 03:22:36;;;;;;;4.32;1.45;;;12.20;99.90;;;;;;2093370;28;20378;-70
2024/04/03 03:23:36;;;;;;;6.45;1.80;;;12.20;99.90;;;;;;2092135;28;20104;-70
2024/04/03 03:24:37;;;;;;;3.28;1.48;;;12.20;99.90;;;;;;2094581;28;20020;-69
2024/04/03 03:25:37;;;;;;;2.30;1.60;;;12.20;99.90;;;;;;2092464;28;20029;-70
2024/04/03 03:26:38;;;;;;;3.58;1.60;;;12.20;99.90;;;;;;2092495;28;20075;-70
2024/04/03 03:27:39;;;;;;;6.80;1.77;;;12.20;99.90;;;;;;2093657;28;20028;-70
2024/04/03 03:28:39;;;;;;;4.13;1.85;;;12.20;99.90;;;;;;2092541;28;20132;-70
2024/04/03 03:29:40;;;;;;;5.75;2.08;;;12.20;99.90;;;;;;2093119;28;20027;-69
2024/04/03 03:30:45;;;;;;;4.75;1.80;;;12.20;99.90;;;;;;2093287;28;20059;-70
2024/04/03 03:31:45;;;;;;;4.90;1.67;;;12.20;99.90;;;;;;2093498;28;20449;-70
2024/04/03 03:32:46;;;;;;;6.10;1.92;;;12.20;99.90;;;;;;2094588;28;20041;-70
2024/04/03 03:33:46;;;;;;;5.22;1.40;;;12.20;99.90;;;;;;2093060;28;20035;-70
2024/04/03 03:34:47;;;;;;;4.10;1.52;;;12.20;99.90;;;;;;2092924;28;20544;-70
2024/04/03 03:35:58;;;;;;;3.85;1.40;;;12.20;99.90;;;;;;2094310;28;20036;-70
2024/04/03 03:36:58;;;;;;;4.15;1.33;;;12.20;99.90;;;;;;2093203;28;20167;-70
2024/04/03 03:37:59;;;;;;;3.90;1.40;;;12.20;99.90;;;;;;2091982;28;20094;-70
2024/04/03 03:38:59;;;;;;;5.60;1.50;;;12.20;99.90;;;;;;2094242;28;20412;-70
2024/04/03 03:40:01;;;;;;;3.28;1.63;;;12.10;99.90;;;;;;2092879;28;20029;-70
2024/04/03 03:41:05;;;;;;;9.95;2.10;;;12.20;99.90;;;;;;2092065;28;20119;-70
2024/04/03 03:42:05;;;;;;;3.35;1.50;;;12.10;99.90;;;;;;2093455;28;20116;-70
2024/04/03 03:43:06;;;;;;;3.45;1.50;;;12.10;99.90;;;;;;2092790;28;20029;-70
2024/04/03 03:44:06;;;;;;;2.60;1.30;;;12.10;99.90;;;;;;2086853;28;20108;-70
2024/04/03 03:45:07;;;;;;;6.25;1.83;;;12.10;99.90;;;;;;2089067;28;20052;-69
2024/04/03 03:46:07;;;;;;;6.65;1.88;;;12.10;99.90;;;;;;2092563;28;20313;-70
2024/04/03 03:47:08;;;;;;;4.45;1.77;;;12.10;99.90;;;;;;2094187;28;20052;-70
2024/04/03 03:48:08;;;;;;;4.70;2.03;;;12.10;99.90;;;;;;2091847;28;20497;-70
2024/04/03 03:53:08;;;;;;;4.85;1.80;;;12.10;99.90;;;;;;2092504;28;20036;-70
2024/04/03 03:54:08;;;;;;;5.10;1.92;;;12.10;99.90;;;;;;2084259;28;20041;-70
2024/04/03 03:55:09;;;;;;;7.10;2.05;;;12.10;99.90;;;;;;2087044;28;20405;-70
2024/04/03 03:56:09;;;;;;;6.38;2.20;;;12.10;99.90;;;;;;2091465;28;20029;-70
2024/04/03 03:57:10;;;;;;;8.30;2.20;;;12.10;99.90;;;;;;2095911;28;20094;-69
2024/04/03 03:58:10;;;;;;;6.15;2.50;;;12.10;99.90;;;;;;2093272;28;20029;-70
2024/04/03 03:59:11;;;;;;;5.53;2.30;;;12.10;99.90;;;;;;2091621;28;20024;-70
2024/04/03 04:00:12;;;;;;;5.80;2.50;;;12.10;99.90;;;;;;2092767;28;20078;-70
2024/04/03 04:01:12;;;;;;;4.57;2.13;;;12.10;99.90;;;;;;2092438;28;20128;-71
2024/04/03 04:02:13;;;;;;;6.00;2.38;;;12.10;99.90;;;;;;2091268;28;20094;-70
2024/04/03 04:03:14;;;;;;;9.05;2.30;;;12.10;99.90;;;;;;2094135;28;20558;-70
2024/04/03 04:04:17;;;;;;;5.30;2.55;;;12.10;99.90;;;;;;2091668;28;20427;-70
2024/04/03 04:05:19;;;;;;;7.85;2.80;;;12.10;99.90;;;;;;2093115;28;20025;-70
2024/04/03 04:06:20;;;;;;;5.53;2.28;;;12.10;99.90;;;;;;2092939;28;20016;-70
2024/04/03 04:07:22;;;;;;;5.53;2.38;;;12.00;99.90;;;;;;2092871;28;20503;-70
2024/04/03 04:08:22;;;;;;;5.25;2.47;;;12.00;99.90;;;;;;2093839;28;20453;-70
2024/04/03 04:09:23;;;;;;;6.78;2.70;;;12.00;99.90;;;;;;2092997;28;20546;-71
2024/04/03 04:10:23;;;;;;;10.40;2.92;;;12.10;99.90;;;;;;2093391;28;20024;-70
2024/04/03 04:11:24;;;;;;;6.60;2.28;;;12.00;99.90;;;;;;2092612;28;20384;-70
2024/04/03 04:12:24;;;;;;;4.80;2.92;;;12.00;99.90;;;;;;2080302;28;20026;-70
2024/04/03 04:13:25;;;;;;;5.72;2.10;;;12.00;99.90;;;;;;2085171;28;20034;-70
2024/04/03 04:14:25;;;;;;;6.93;2.40;;;12.10;99.90;;;;;;2092432;28;20024;-70
2024/04/03 04:15:26;;;;;;;4.95;2.45;;;12.00;99.90;;;;;;2084428;28;20116;-70
2024/04/03 04:16:26;;;;;;;4.97;2.17;;;12.10;99.90;;;;;;2082388;28;20490;-70
2024/04/03 04:17:27;;;;;;;6.40;2.78;;;12.00;99.90;;;;;;2094133;28;20079;-70
2024/04/03 04:18:29;;;;;;;6.55;2.67;;;12.00;99.90;;;;;;2094336;28;20070;-69
2024/04/03 04:19:29;;;;;;;8.95;2.90;;;12.10;99.90;;;;;;2094241;28;20033;-70
2024/04/03 04:20:29;;;;;;;6.72;3.05;;;12.10;99.90;;;;;;2094452;28;20060;-69
2024/04/03 04:21:30;;;;;;;6.40;3.28;;;12.10;99.90;;;;;;2095117;28;20489;-70
2024/04/03 04:22:30;;;;;;;7.28;2.40;;;12.10;99.90;;;;;;2093795;28;20492;-70
2024/04/03 04:23:31;;;;;;;7.43;2.85;;;12.00;99.90;;;;;;2093372;28;20029;-69
2024/04/03 04:24:33;;;;;;;6.63;2.70;;;12.00;99.90;;;;;;2092619;28;20771;-70
2024/04/03 04:25:33;;;;;;;8.00;2.90;;;12.00;99.90;;;;;;2094890;28;20025;-70
2024/04/03 04:26:34;;;;;;;6.85;2.90;;;12.00;99.90;;;;;;2093952;28;20334;-69
2024/04/03 04:27:34;;;;;;;7.22;2.55;;;12.00;99.90;;;;;;2096703;28;20017;-70
2024/04/03 04:28:35;;;;;;;4.82;2.75;;;12.00;99.90;;;;;;2093234;28;20023;-70
2024/04/03 04:29:36;;;;;;;4.53;2.65;;;12.00;99.90;;;;;;2093299;28;20503;-70
2024/04/03 04:30:40;;;;;;;7.88;2.67;;;12.00;99.90;;;;;;2092806;28;20417;-70
2024/04/03 04:31:41;;;;;;;6.35;2.95;;;12.00;99.90;;;;;;2092756;28;20016;-70
2024/04/03 04:32:41;;;;;;;7.13;3.25;;;12.00;99.90;;;;;;2093378;28;20025;-70
2024/04/03 04:33:42;;;;;;;7.45;2.75;;;12.00;99.90;;;;;;2093271;28;20649;-70
2024/04/03 04:34:42;;;;;;;8.93;2.78;;;12.00;99.90;;;;;;2095388;28;20020;-70
2024/04/03 04:35:52;;;;;;;6.50;2.65;;;12.00;99.90;;;;;;2094396;28;20025;-70
2024/04/03 04:36:52;;;;;;;7.63;2.72;;;12.00;99.90;;;;;;2093614;28;20029;-70
2024/04/03 04:37:53;;;;;;;6.40;2.75;;;12.00;99.90;;;;;;2094016;28;20017;-70
2024/04/03 04:38:53;;;;;;;5.07;2.35;;;12.00;99.90;;;;;;2095164;28;20031;-70
2024/04/03 04:39:54;;;;;;;4.80;2.40;;;12.00;99.90;;;;;;2093958;28;20017;-70
2024/04/03 04:40:59;;;;;;;8.90;2.58;;;12.00;99.90;;;;;;2094682;28;20120;-70
2024/04/03 04:42:00;;;;;;;7.45;2.67;;;12.00;99.90;;;;;;2093822;28;20610;-70
2024/04/03 04:43:00;;;;;;;6.10;2.83;;;12.00;99.90;;;;;;2093252;28;20127;-70
2024/04/03 04:44:02;;;;;;;5.80;3.10;;;12.00;99.90;;;;;;2094778;28;20432;-70
2024/04/03 04:45:02;;;;;;;6.55;3.08;;;12.00;99.90;;;;;;2093769;28;20064;-70
2024/04/03 04:46:04;;;;;;;6.78;2.80;;;12.00;99.90;;;;;;2091995;28;20025;-70
2024/04/03 04:47:05;;;;;;;8.43;3.00;;;12.00;99.90;;;;;;2095252;28;20136;-70
2024/04/03 04:48:06;;;;;;;10.25;4.13;;;12.00;99.90;;;;;;2094390;28;20028;-70
2024/04/03 04:49:06;;;;;;;9.07;3.42;;;12.00;99.90;;;;;;2092588;28;20024;-70
2024/04/03 04:50:09;;;;;;;8.18;3.40;;;12.00;99.90;;;;;;2094413;28;20032;-70
2024/04/03 04:51:11;;;;;;;11.27;3.70;;;12.00;99.90;;;;;;2094628;28;20028;-70
2024/04/03 04:52:11;;;;;;;10.55;3.80;;;12.00;99.90;;;;;;2094696;28;20103;-70
2024/04/03 04:53:12;;;;;;;7.88;3.30;;;12.00;99.90;;;;;;2095557;28;20032;-68
2024/04/03 04:54:15;;;;;;;4.88;3.30;;;12.00;99.90;;;;;;2091781;28;20056;-69
2024/04/03 04:55:15;;;;;;;9.27;3.63;;;12.00;99.90;;;;;;2094409;28;20434;-68
2024/04/03 04:56:16;;;;;;;8.95;3.75;;;12.00;99.90;;;;;;2094826;28;20040;-68
2024/04/03 04:57:16;;;;;;;8.32;3.05;;;12.00;99.90;;;;;;2094575;28;20450;-70
2024/04/03 04:58:17;;;;;;;10.70;3.92;;;12.00;99.90;;;;;;2094226;28;20393;-70
2024/04/03 04:59:17;;;;;;;7.30;3.97;;;12.00;99.90;;;;;;2094646;28;20311;-70
2024/04/03 05:00:18;;;;;;;8.00;3.80;;;12.00;99.90;;;;;;2093207;28;20035;-70
2024/04/03 05:01:19;;;;;;;8.65;3.80;;;12.00;99.90;;;;;;2094091;28;20059;-70
2024/04/03 05:02:19;;;;;;;10.10;4.10;;;12.00;99.90;;;;;;2093194;28;20469;-70
2024/04/03 05:03:20;;;;;;;6.53;4.03;;;12.00;99.90;;;;;;2093170;28;20025;-70
2024/04/03 05:04:21;;;;;;;6.30;3.47;;;12.00;99.90;;;;;;2094022;28;20031;-70
2024/04/03 05:05:25;;;;;;;7.10;3.70;;;12.00;99.90;;;;;;2091743;28;20024;-70
2024/04/03 05:06:26;;;;;;;7.78;3.60;;;12.00;99.90;;;;;;2096292;28;20027;-70
2024/04/03 05:07:26;;;;;;;8.02;3.85;;;12.00;99.90;;;;;;2095019;28;20032;-70
2024/04/03 05:08:29;;;;;;;7.93;4.07;;;12.00;99.90;;;;;;2094329;28;20071;-69
2024/04/03 05:09:30;;;;;;;8.75;4.18;;;12.00;99.90;;;;;;2094825;28;20041;-70
2024/04/03 05:10:30;;;;;;;11.13;4.22;;;11.90;99.90;;;;;;2084809;28;20124;-70
2024/04/03 05:11:31;;;;;;;7.53;4.10;;;11.90;99.90;;;;;;2094885;28;20036;-72
2024/04/03 05:12:31;;;;;;;8.77;3.85;;;11.90;99.90;;;;;;2094031;28;20049;-70
2024/04/03 05:13:33;;;;;;;9.13;4.63;;;11.90;99.90;;;;;;2089629;28;20025;-70
2024/04/03 05:14:34;;;;;;;6.97;3.78;;;11.90;99.90;;;;;;2086467;28;20048;-69
2024/04/03 05:15:34;;;;;;;7.53;4.30;;;11.90;99.90;;;;;;2093714;28;20111;-70
2024/04/03 05:16:35;;;;;;;7.68;4.32;;;11.90;99.90;;;;;;2094670;28;20028;-70
2024/04/03 05:17:36;;;;;;;9.20;4.25;;;11.80;99.90;;;;;;2095484;28;20048;-70
2024/04/03 05:18:37;;;;;;;9.35;4.22;;;11.90;99.90;;;;;;2092879;28;20056;-70
2024/04/03 05:19:37;;;;;;;8.18;4.10;;;11.90;99.90;;;;;;2095136;28;20033;-70
2024/04/03 05:20:38;;;;;;;7.82;4.22;;;11.90;99.90;;;;;;2094977;28;20070;-70
2024/04/03 05:21:38;;;;;;;6.53;4.35;;;11.90;99.90;;;;;;2093990;28;20078;-70